sensor_id;sensor_type;location;lat;lon;timestamp;pressure;altitude;pressure_sealevel;temperature
65569;BMP180;52211;50.154;8.682;2023-02-23T00:00:36;99681.00;;;15.90
65569;BMP180;52211;50.154;8.682;2023-02-23T00:03:03;99691.00;;;15.90
65569;BMP180;52211;50.154;8.682;2023-02-23T00:05:36;99691.00;;;15.90
65569;BMP180;52211;50.154;8.682;2023-02-23T00:08:05;99689.00;;;15.90
65569;BMP180;52211;50.154;8.682;2023-02-23T00:10:37;99691.00;;;15.90
65569;BMP180;52211;50.154;8.682;2023-02-23T00:13:08;99684.00;;;15.90
65569;BMP180;52211;50.154;8.682;2023-02-23T00:15:39;99680.00;;;15.90
65569;BMP180;52211;50.154;8.682;2023-02-23T00:18:06;99687.00;;;15.90
65569;BMP180;52211;50.154;8.682;2023-02-23T00:20:34;99684.00;;;16.00
65569;BMP180;52211;50.154;8.682;2023-02-23T00:23:02;99691.00;;;15.90
65569;BMP180;52211;50.154;8.682;2023-02-23T00:25:36;99692.00;;;15.90
65569;BMP180;52211;50.154;8.682;2023-02-23T00:28:10;99693.00;;;15.90
65569;BMP180;52211;50.154;8.682;2023-02-23T00:30:39;99692.00;;;15.90
65569;BMP180;52211;50.154;8.682;2023-02-23T00:33:10;99687.00;;;15.90
65569;BMP180;52211;50.154;8.682;2023-02-23T00:35:41;99690.00;;;15.90
65569;BMP180;52211;50.154;8.682;2023-02-23T00:38:08;99688.00;;;15.90
65569;BMP180;52211;50.154;8.682;2023-02-23T00:40:39;99687.00;;;15.80
65569;BMP180;52211;50.154;8.682;2023-02-23T00:43:06;99686.00;;;15.80
65569;BMP180;52211;50.154;8.682;2023-02-23T00:45:36;99687.00;;;15.80
65569;BMP180;52211;50.154;8.682;2023-02-23T00:48:08;99685.00;;;15.80
65569;BMP180;52211;50.154;8.682;2023-02-23T00:50:38;99693.00;;;15.80
65569;BMP180;52211;50.154;8.682;2023-02-23T00:53:09;99691.00;;;15.80
65569;BMP180;52211;50.154;8.682;2023-02-23T00:55:42;99690.00;;;15.80
65569;BMP180;52211;50.154;8.682;2023-02-23T00:58:09;99690.00;;;15.80
65569;BMP180;52211;50.154;8.682;2023-02-23T01:00:48;99687.00;;;15.80
65569;BMP180;52211;50.154;8.682;2023-02-23T01:03:21;99686.00;;;15.80
65569;BMP180;52211;50.154;8.682;2023-02-23T01:05:51;99692.00;;;15.80
65569;BMP180;52211;50.154;8.682;2023-02-23T01:08:22;99697.00;;;15.80
65569;BMP180;52211;50.154;8.682;2023-02-23T01:10:55;99693.00;;;15.80
65569;BMP180;52211;50.154;8.682;2023-02-23T01:13:25;99690.00;;;15.80
65569;BMP180;52211;50.154;8.682;2023-02-23T01:15:53;99695.00;;;15.70
65569;BMP180;52211;50.154;8.682;2023-02-23T01:18:24;99690.00;;;15.70
65569;BMP180;52211;50.154;8.682;2023-02-23T01:20:51;99684.00;;;15.70
65569;BMP180;52211;50.154;8.682;2023-02-23T01:23:20;99685.00;;;15.70
65569;BMP180;52211;50.154;8.682;2023-02-23T01:25:55;99689.00;;;15.70
65569;BMP180;52211;50.154;8.682;2023-02-23T01:28:24;99686.00;;;15.70
65569;BMP180;52211;50.154;8.682;2023-02-23T01:30:52;99674.00;;;15.70
65569;BMP180;52211;50.154;8.682;2023-02-23T01:33:27;99678.00;;;15.70
65569;BMP180;52211;50.154;8.682;2023-02-23T01:35:58;99684.00;;;15.80
65569;BMP180;52211;50.154;8.682;2023-02-23T01:38:26;99684.00;;;15.80
65569;BMP180;52211;50.154;8.682;2023-02-23T01:40:54;99692.00;;;15.80
65569;BMP180;52211;50.154;8.682;2023-02-23T01:43:25;99694.00;;;15.80
65569;BMP180;52211;50.154;8.682;2023-02-23T01:45:58;99690.00;;;15.80
65569;BMP180;52211;50.154;8.682;2023-02-23T01:48:36;99688.00;;;15.80
65569;BMP180;52211;50.154;8.682;2023-02-23T01:51:18;99687.00;;;15.70
65569;BMP180;52211;50.154;8.682;2023-02-23T01:54:03;99687.00;;;15.70
65569;BMP180;52211;50.154;8.682;2023-02-23T01:56:38;99684.00;;;15.70
65569;BMP180;52211;50.154;8.682;2023-02-23T01:59:11;99683.00;;;15.70
65569;BMP180;52211;50.154;8.682;2023-02-23T02:01:43;99682.00;;;15.70
65569;BMP180;52211;50.154;8.682;2023-02-23T02:04:16;99680.00;;;15.70
65569;BMP180;52211;50.154;8.682;2023-02-23T02:06:48;99682.00;;;15.70
65569;BMP180;52211;50.154;8.682;2023-02-23T02:09:23;99681.00;;;15.60
65569;BMP180;52211;50.154;8.682;2023-02-23T02:11:58;99673.00;;;15.60
65569;BMP180;52211;50.154;8.682;2023-02-23T02:14:32;99676.00;;;15.60
65569;BMP180;52211;50.154;8.682;2023-02-23T02:26:24;99672.00;;;15.40
65569;BMP180;52211;50.154;8.682;2023-02-23T02:32:58;99675.00;;;15.30
65569;BMP180;52211;50.154;8.682;2023-02-23T02:44:58;99662.00;;;15.30
65569;BMP180;52211;50.154;8.682;2023-02-23T02:47:48;99665.00;;;15.30
65569;BMP180;52211;50.154;8.682;2023-02-23T02:50:33;99658.00;;;15.30
65569;BMP180;52211;50.154;8.682;2023-02-23T02:53:08;99664.00;;;15.30
65569;BMP180;52211;50.154;8.682;2023-02-23T02:55:39;99654.00;;;15.30
65569;BMP180;52211;50.154;8.682;2023-02-23T02:58:16;99656.00;;;15.30
65569;BMP180;52211;50.154;8.682;2023-02-23T03:00:49;99657.00;;;15.30
65569;BMP180;52211;50.154;8.682;2023-02-23T03:03:42;99657.00;;;15.30
65569;BMP180;52211;50.154;8.682;2023-02-23T03:06:44;99656.00;;;15.30
65569;BMP180;52211;50.154;8.682;2023-02-23T03:13:17;99656.00;;;15.20
65569;BMP180;52211;50.154;8.682;2023-02-23T03:19:27;99652.00;;;15.20
65569;BMP180;52211;50.154;8.682;2023-02-23T03:22:37;99661.00;;;15.20
65569;BMP180;52211;50.154;8.682;2023-02-23T03:25:55;99656.00;;;15.20
65569;BMP180;52211;50.154;8.682;2023-02-23T03:32:03;99660.00;;;15.30
65569;BMP180;52211;50.154;8.682;2023-02-23T03:35:09;99662.00;;;15.30
65569;BMP180;52211;50.154;8.682;2023-02-23T03:41:07;99669.00;;;15.30
65569;BMP180;52211;50.154;8.682;2023-02-23T03:44:00;99665.00;;;15.40
65569;BMP180;52211;50.154;8.682;2023-02-23T03:46:50;99666.00;;;15.40
65569;BMP180;52211;50.154;8.682;2023-02-23T03:49:42;99672.00;;;15.40
65569;BMP180;52211;50.154;8.682;2023-02-23T03:52:39;99671.00;;;15.40
65569;BMP180;52211;50.154;8.682;2023-02-23T03:55:33;99670.00;;;15.40
65569;BMP180;52211;50.154;8.682;2023-02-23T03:58:32;99672.00;;;15.40
65569;BMP180;52211;50.154;8.682;2023-02-23T04:01:25;99672.00;;;15.50
65569;BMP180;52211;50.154;8.682;2023-02-23T04:04:12;99665.00;;;15.50
65569;BMP180;52211;50.154;8.682;2023-02-23T04:07:02;99664.00;;;15.50
65569;BMP180;52211;50.154;8.682;2023-02-23T04:09:50;99678.00;;;15.60
65569;BMP180;52211;50.154;8.682;2023-02-23T04:16:11;99673.00;;;15.60
65569;BMP180;52211;50.154;8.682;2023-02-23T04:18:39;99668.00;;;15.60
65569;BMP180;52211;50.154;8.682;2023-02-23T04:21:10;99669.00;;;15.60
65569;BMP180;52211;50.154;8.682;2023-02-23T04:23:41;99670.00;;;15.70
65569;BMP180;52211;50.154;8.682;2023-02-23T04:26:13;99673.00;;;15.70
65569;BMP180;52211;50.154;8.682;2023-02-23T04:28:42;99681.00;;;15.70
65569;BMP180;52211;50.154;8.682;2023-02-23T04:31:11;99679.00;;;15.70
65569;BMP180;52211;50.154;8.682;2023-02-23T04:33:40;99677.00;;;15.70
65569;BMP180;52211;50.154;8.682;2023-02-23T04:36:12;99673.00;;;15.70
65569;BMP180;52211;50.154;8.682;2023-02-23T04:38:44;99682.00;;;15.70
65569;BMP180;52211;50.154;8.682;2023-02-23T04:41:14;99687.00;;;15.80
65569;BMP180;52211;50.154;8.682;2023-02-23T04:43:43;99682.00;;;15.80
65569;BMP180;52211;50.154;8.682;2023-02-23T04:46:17;99685.00;;;15.80
65569;BMP180;52211;50.154;8.682;2023-02-23T04:48:46;99678.00;;;15.80
65569;BMP180;52211;50.154;8.682;2023-02-23T04:51:13;99684.00;;;15.80
65569;BMP180;52211;50.154;8.682;2023-02-23T04:53:40;99686.00;;;15.80
65569;BMP180;52211;50.154;8.682;2023-02-23T04:56:07;99686.00;;;15.80
65569;BMP180;52211;50.154;8.682;2023-02-23T04:58:38;99680.00;;;15.80
65569;BMP180;52211;50.154;8.682;2023-02-23T05:01:07;99682.00;;;15.80
65569;BMP180;52211;50.154;8.682;2023-02-23T05:03:37;99687.00;;;15.80
65569;BMP180;52211;50.154;8.682;2023-02-23T05:06:06;99682.00;;;15.80
65569;BMP180;52211;50.154;8.682;2023-02-23T05:08:36;99685.00;;;15.80
65569;BMP180;52211;50.154;8.682;2023-02-23T05:11:05;99684.00;;;15.70
65569;BMP180;52211;50.154;8.682;2023-02-23T05:13:37;99680.00;;;15.70
65569;BMP180;52211;50.154;8.682;2023-02-23T05:16:08;99677.00;;;15.70
65569;BMP180;52211;50.154;8.682;2023-02-23T05:18:35;99683.00;;;15.70
65569;BMP180;52211;50.154;8.682;2023-02-23T05:21:09;99680.00;;;15.70
65569;BMP180;52211;50.154;8.682;2023-02-23T05:23:37;99685.00;;;15.80
65569;BMP180;52211;50.154;8.682;2023-02-23T05:26:11;99678.00;;;15.70
65569;BMP180;52211;50.154;8.682;2023-02-23T05:28:40;99682.00;;;15.70
65569;BMP180;52211;50.154;8.682;2023-02-23T05:31:08;99686.00;;;15.70
65569;BMP180;52211;50.154;8.682;2023-02-23T05:33:38;99682.00;;;15.70
65569;BMP180;52211;50.154;8.682;2023-02-23T05:36:14;99687.00;;;15.70
65569;BMP180;52211;50.154;8.682;2023-02-23T05:38:44;99687.00;;;15.70
65569;BMP180;52211;50.154;8.682;2023-02-23T05:41:18;99687.00;;;15.60
65569;BMP180;52211;50.154;8.682;2023-02-23T05:43:50;99683.00;;;15.60
65569;BMP180;52211;50.154;8.682;2023-02-23T05:46:23;99688.00;;;15.60
65569;BMP180;52211;50.154;8.682;2023-02-23T05:48:57;99683.00;;;15.60
65569;BMP180;52211;50.154;8.682;2023-02-23T05:51:29;99688.00;;;15.60
65569;BMP180;52211;50.154;8.682;2023-02-23T05:53:58;99691.00;;;15.60
65569;BMP180;52211;50.154;8.682;2023-02-23T05:56:28;99691.00;;;15.60
65569;BMP180;52211;50.154;8.682;2023-02-23T05:58:56;99688.00;;;15.60
65569;BMP180;52211;50.154;8.682;2023-02-23T06:01:29;99691.00;;;15.60
65569;BMP180;52211;50.154;8.682;2023-02-23T06:03:59;99691.00;;;15.60
65569;BMP180;52211;50.154;8.682;2023-02-23T06:06:26;99693.00;;;15.60
65569;BMP180;52211;50.154;8.682;2023-02-23T06:08:55;99690.00;;;15.60
65569;BMP180;52211;50.154;8.682;2023-02-23T06:11:27;99690.00;;;15.60
65569;BMP180;52211;50.154;8.682;2023-02-23T06:13:54;99702.00;;;15.70
65569;BMP180;52211;50.154;8.682;2023-02-23T06:16:22;99703.00;;;15.70
65569;BMP180;52211;50.154;8.682;2023-02-23T06:18:52;99690.00;;;15.60
65569;BMP180;52211;50.154;8.682;2023-02-23T06:21:21;99694.00;;;15.60
65569;BMP180;52211;50.154;8.682;2023-02-23T06:23:53;99699.00;;;15.60
65569;BMP180;52211;50.154;8.682;2023-02-23T06:26:23;99698.00;;;15.60
65569;BMP180;52211;50.154;8.682;2023-02-23T06:28:50;99709.00;;;15.60
65569;BMP180;52211;50.154;8.682;2023-02-23T06:31:17;99704.00;;;15.60
65569;BMP180;52211;50.154;8.682;2023-02-23T06:33:46;99709.00;;;15.50
65569;BMP180;52211;50.154;8.682;2023-02-23T06:36:16;99702.00;;;15.60
65569;BMP180;52211;50.154;8.682;2023-02-23T06:38:47;99705.00;;;15.50
65569;BMP180;52211;50.154;8.682;2023-02-23T06:41:16;99709.00;;;15.50
65569;BMP180;52211;50.154;8.682;2023-02-23T06:43:44;99702.00;;;15.50
65569;BMP180;52211;50.154;8.682;2023-02-23T06:46:13;99711.00;;;15.50
65569;BMP180;52211;50.154;8.682;2023-02-23T06:48:42;99717.00;;;15.50
65569;BMP180;52211;50.154;8.682;2023-02-23T06:51:11;99716.00;;;15.50
65569;BMP180;52211;50.154;8.682;2023-02-23T06:53:41;99714.00;;;15.50
65569;BMP180;52211;50.154;8.682;2023-02-23T06:56:07;99716.00;;;15.50
65569;BMP180;52211;50.154;8.682;2023-02-23T06:58:40;99718.00;;;15.50
65569;BMP180;52211;50.154;8.682;2023-02-23T07:01:14;99720.00;;;15.50
65569;BMP180;52211;50.154;8.682;2023-02-23T07:03:47;99732.00;;;15.60
65569;BMP180;52211;50.154;8.682;2023-02-23T07:06:14;99736.00;;;15.60
65569;BMP180;52211;50.154;8.682;2023-02-23T07:08:41;99738.00;;;15.60
65569;BMP180;52211;50.154;8.682;2023-02-23T07:11:13;99727.00;;;15.60
65569;BMP180;52211;50.154;8.682;2023-02-23T07:13:47;99729.00;;;15.70
65569;BMP180;52211;50.154;8.682;2023-02-23T07:16:14;99731.00;;;15.70
65569;BMP180;52211;50.154;8.682;2023-02-23T07:18:44;99731.00;;;15.70
65569;BMP180;52211;50.154;8.682;2023-02-23T07:21:15;99741.00;;;15.70
65569;BMP180;52211;50.154;8.682;2023-02-23T07:23:47;99744.00;;;15.80
65569;BMP180;52211;50.154;8.682;2023-02-23T07:26:16;99749.00;;;15.80
65569;BMP180;52211;50.154;8.682;2023-02-23T07:28:46;99744.00;;;15.80
65569;BMP180;52211;50.154;8.682;2023-02-23T07:31:13;99747.00;;;15.70
65569;BMP180;52211;50.154;8.682;2023-02-23T07:33:40;99742.00;;;15.80
65569;BMP180;52211;50.154;8.682;2023-02-23T07:36:08;99742.00;;;15.80
65569;BMP180;52211;50.154;8.682;2023-02-23T07:38:37;99744.00;;;15.80
65569;BMP180;52211;50.154;8.682;2023-02-23T07:41:06;99746.00;;;15.80
65569;BMP180;52211;50.154;8.682;2023-02-23T07:43:33;99739.00;;;15.80
65569;BMP180;52211;50.154;8.682;2023-02-23T07:46:01;99751.00;;;15.80
65569;BMP180;52211;50.154;8.682;2023-02-23T07:48:30;99749.00;;;15.80
65569;BMP180;52211;50.154;8.682;2023-02-23T07:51:08;99747.00;;;15.80
65569;BMP180;52211;50.154;8.682;2023-02-23T07:53:40;99749.00;;;15.80
65569;BMP180;52211;50.154;8.682;2023-02-23T07:56:09;99752.00;;;15.80
65569;BMP180;52211;50.154;8.682;2023-02-23T07:58:43;99750.00;;;15.80
65569;BMP180;52211;50.154;8.682;2023-02-23T08:01:13;99754.00;;;15.80
65569;BMP180;52211;50.154;8.682;2023-02-23T08:03:46;99751.00;;;15.80
65569;BMP180;52211;50.154;8.682;2023-02-23T08:06:22;99759.00;;;15.80
65569;BMP180;52211;50.154;8.682;2023-02-23T08:08:51;99764.00;;;15.90
65569;BMP180;52211;50.154;8.682;2023-02-23T08:11:20;99760.00;;;15.90
65569;BMP180;52211;50.154;8.682;2023-02-23T08:13:49;99757.00;;;15.90
65569;BMP180;52211;50.154;8.682;2023-02-23T08:16:16;99764.00;;;15.90
65569;BMP180;52211;50.154;8.682;2023-02-23T08:18:44;99758.00;;;15.90
65569;BMP180;52211;50.154;8.682;2023-02-23T08:21:13;99757.00;;;15.90
65569;BMP180;52211;50.154;8.682;2023-02-23T08:23:46;99763.00;;;15.90
65569;BMP180;52211;50.154;8.682;2023-02-23T08:26:15;99761.00;;;15.90
65569;BMP180;52211;50.154;8.682;2023-02-23T08:28:44;99763.00;;;15.90
65569;BMP180;52211;50.154;8.682;2023-02-23T08:31:14;99764.00;;;15.90
65569;BMP180;52211;50.154;8.682;2023-02-23T08:33:47;99761.00;;;16.00
65569;BMP180;52211;50.154;8.682;2023-02-23T08:36:16;99762.00;;;16.00
65569;BMP180;52211;50.154;8.682;2023-02-23T08:38:43;99767.00;;;16.00
65569;BMP180;52211;50.154;8.682;2023-02-23T08:41:13;99771.00;;;16.00
65569;BMP180;52211;50.154;8.682;2023-02-23T08:43:42;99773.00;;;16.00
65569;BMP180;52211;50.154;8.682;2023-02-23T08:46:12;99772.00;;;16.00
65569;BMP180;52211;50.154;8.682;2023-02-23T08:48:40;99772.00;;;16.00
65569;BMP180;52211;50.154;8.682;2023-02-23T08:51:09;99774.00;;;16.00
65569;BMP180;52211;50.154;8.682;2023-02-23T08:53:39;99767.00;;;16.00
65569;BMP180;52211;50.154;8.682;2023-02-23T08:56:07;99766.00;;;16.10
65569;BMP180;52211;50.154;8.682;2023-02-23T08:58:35;99772.00;;;16.10
65569;BMP180;52211;50.154;8.682;2023-02-23T09:01:03;99768.00;;;16.10
65569;BMP180;52211;50.154;8.682;2023-02-23T09:03:34;99773.00;;;16.10
65569;BMP180;52211;50.154;8.682;2023-02-23T09:06:12;99776.00;;;16.10
65569;BMP180;52211;50.154;8.682;2023-02-23T09:08:40;99771.00;;;16.10
65569;BMP180;52211;50.154;8.682;2023-02-23T09:11:06;99772.00;;;16.10
65569;BMP180;52211;50.154;8.682;2023-02-23T09:13:36;99781.00;;;16.10
65569;BMP180;52211;50.154;8.682;2023-02-23T09:16:08;99776.00;;;16.10
65569;BMP180;52211;50.154;8.682;2023-02-23T09:18:41;99779.00;;;16.10
65569;BMP180;52211;50.154;8.682;2023-02-23T09:21:15;99775.00;;;16.10
65569;BMP180;52211;50.154;8.682;2023-02-23T09:23:53;99783.00;;;16.20
65569;BMP180;52211;50.154;8.682;2023-02-23T09:26:23;99788.00;;;16.20
65569;BMP180;52211;50.154;8.682;2023-02-23T09:28:50;99786.00;;;16.20
65569;BMP180;52211;50.154;8.682;2023-02-23T09:31:22;99794.00;;;16.20
65569;BMP180;52211;50.154;8.682;2023-02-23T09:33:50;99792.00;;;16.20
65569;BMP180;52211;50.154;8.682;2023-02-23T09:36:25;99786.00;;;16.30
65569;BMP180;52211;50.154;8.682;2023-02-23T09:38:54;99796.00;;;16.30
65569;BMP180;52211;50.154;8.682;2023-02-23T09:49:56;99801.00;;;16.20
65569;BMP180;52211;50.154;8.682;2023-02-23T09:52:40;99794.00;;;16.20
65569;BMP180;52211;50.154;8.682;2023-02-23T09:55:14;99797.00;;;16.20
65569;BMP180;52211;50.154;8.682;2023-02-23T09:57:47;99788.00;;;16.20
65569;BMP180;52211;50.154;8.682;2023-02-23T10:00:25;99788.00;;;16.20
65569;BMP180;52211;50.154;8.682;2023-02-23T10:03:32;99792.00;;;16.20
65569;BMP180;52211;50.154;8.682;2023-02-23T10:06:06;99797.00;;;16.30
65569;BMP180;52211;50.154;8.682;2023-02-23T10:09:17;99788.00;;;16.30
65569;BMP180;52211;50.154;8.682;2023-02-23T10:11:58;99794.00;;;16.30
65569;BMP180;52211;50.154;8.682;2023-02-23T10:23:04;99789.00;;;16.30
65569;BMP180;52211;50.154;8.682;2023-02-23T10:25:39;99798.00;;;16.40
65569;BMP180;52211;50.154;8.682;2023-02-23T10:28:14;99799.00;;;16.40
65569;BMP180;52211;50.154;8.682;2023-02-23T10:30:48;99807.00;;;16.50
65569;BMP180;52211;50.154;8.682;2023-02-23T10:33:33;99802.00;;;16.60
65569;BMP180;52211;50.154;8.682;2023-02-23T10:36:18;99802.00;;;16.60
65569;BMP180;52211;50.154;8.682;2023-02-23T10:38:52;99797.00;;;16.70
65569;BMP180;52211;50.154;8.682;2023-02-23T10:41:24;99804.00;;;16.90
65569;BMP180;52211;50.154;8.682;2023-02-23T10:43:53;99799.00;;;17.00
65569;BMP180;52211;50.154;8.682;2023-02-23T10:46:34;99803.00;;;17.10
65569;BMP180;52211;50.154;8.682;2023-02-23T10:49:03;99804.00;;;17.30
65569;BMP180;52211;50.154;8.682;2023-02-23T10:51:36;99804.00;;;17.40
65569;BMP180;52211;50.154;8.682;2023-02-23T10:57:01;99808.00;;;17.50
65569;BMP180;52211;50.154;8.682;2023-02-23T10:59:32;99809.00;;;17.50
65569;BMP180;52211;50.154;8.682;2023-02-23T11:02:24;99810.00;;;17.50
65569;BMP180;52211;50.154;8.682;2023-02-23T11:04:54;99799.00;;;17.50
65569;BMP180;52211;50.154;8.682;2023-02-23T11:07:32;99808.00;;;17.50
65569;BMP180;52211;50.154;8.682;2023-02-23T11:10:26;99801.00;;;17.50
65569;BMP180;52211;50.154;8.682;2023-02-23T11:13:00;99800.00;;;17.50
65569;BMP180;52211;50.154;8.682;2023-02-23T11:15:32;99795.00;;;17.50
65569;BMP180;52211;50.154;8.682;2023-02-23T11:18:21;99799.00;;;17.50
65569;BMP180;52211;50.154;8.682;2023-02-23T11:20:54;99802.00;;;17.50
65569;BMP180;52211;50.154;8.682;2023-02-23T11:23:33;99808.00;;;17.50
65569;BMP180;52211;50.154;8.682;2023-02-23T11:26:28;99800.00;;;17.50
65569;BMP180;52211;50.154;8.682;2023-02-23T11:31:53;99791.00;;;17.50
65569;BMP180;52211;50.154;8.682;2023-02-23T11:34:32;99790.00;;;17.40
65569;BMP180;52211;50.154;8.682;2023-02-23T11:40:07;99794.00;;;17.40
65569;BMP180;52211;50.154;8.682;2023-02-23T11:42:56;99793.00;;;17.50
65569;BMP180;52211;50.154;8.682;2023-02-23T11:45:26;99793.00;;;17.50
65569;BMP180;52211;50.154;8.682;2023-02-23T11:48:02;99785.00;;;17.60
65569;BMP180;52211;50.154;8.682;2023-02-23T11:50:34;99780.00;;;17.80
65569;BMP180;52211;50.154;8.682;2023-02-23T11:53:15;99781.00;;;18.00
65569;BMP180;52211;50.154;8.682;2023-02-23T11:55:51;99787.00;;;18.20
65569;BMP180;52211;50.154;8.682;2023-02-23T12:01:12;99785.00;;;18.40
65569;BMP180;52211;50.154;8.682;2023-02-23T12:03:53;99776.00;;;18.40
65569;BMP180;52211;50.154;8.682;2023-02-23T12:06:38;99776.00;;;18.40
65569;BMP180;52211;50.154;8.682;2023-02-23T12:09:32;99769.00;;;18.30
65569;BMP180;52211;50.154;8.682;2023-02-23T12:12:06;99766.00;;;18.30
65569;BMP180;52211;50.154;8.682;2023-02-23T12:14:48;99757.00;;;18.20
65569;BMP180;52211;50.154;8.682;2023-02-23T12:17:44;99753.00;;;18.20
65569;BMP180;52211;50.154;8.682;2023-02-23T12:20:22;99758.00;;;18.20
65569;BMP180;52211;50.154;8.682;2023-02-23T12:23:02;99751.00;;;18.20
65569;BMP180;52211;50.154;8.682;2023-02-23T12:29:03;99758.00;;;18.20
65569;BMP180;52211;50.154;8.682;2023-02-23T12:31:48;99759.00;;;18.20
65569;BMP180;52211;50.154;8.682;2023-02-23T12:35:17;99751.00;;;18.20
65569;BMP180;52211;50.154;8.682;2023-02-23T12:37:46;99752.00;;;18.10
65569;BMP180;52211;50.154;8.682;2023-02-23T12:40:23;99756.00;;;18.10
65569;BMP180;52211;50.154;8.682;2023-02-23T12:45:56;99762.00;;;18.00
65569;BMP180;52211;50.154;8.682;2023-02-23T12:51:56;99760.00;;;17.90
65569;BMP180;52211;50.154;8.682;2023-02-23T12:54:25;99758.00;;;17.90
65569;BMP180;52211;50.154;8.682;2023-02-23T12:57:17;99754.00;;;17.90
65569;BMP180;52211;50.154;8.682;2023-02-23T13:06:17;99752.00;;;17.70
65569;BMP180;52211;50.154;8.682;2023-02-23T13:14:57;99750.00;;;17.50
65569;BMP180;52211;50.154;8.682;2023-02-23T13:17:39;99746.00;;;17.50
65569;BMP180;52211;50.154;8.682;2023-02-23T13:20:41;99754.00;;;17.50
65569;BMP180;52211;50.154;8.682;2023-02-23T13:23:52;99750.00;;;17.60
65569;BMP180;52211;50.154;8.682;2023-02-23T13:27:02;99752.00;;;17.60
65569;BMP180;52211;50.154;8.682;2023-02-23T13:29:42;99746.00;;;17.60
65569;BMP180;52211;50.154;8.682;2023-02-23T13:32:32;99740.00;;;17.70
65569;BMP180;52211;50.154;8.682;2023-02-23T13:35:13;99749.00;;;17.80
65569;BMP180;52211;50.154;8.682;2023-02-23T13:38:03;99744.00;;;17.80
65569;BMP180;52211;50.154;8.682;2023-02-23T13:40:45;99745.00;;;17.80
65569;BMP180;52211;50.154;8.682;2023-02-23T13:43:24;99741.00;;;17.80
65569;BMP180;52211;50.154;8.682;2023-02-23T13:51:36;99733.00;;;17.90
65569;BMP180;52211;50.154;8.682;2023-02-23T13:56:52;99738.00;;;17.90
65569;BMP180;52211;50.154;8.682;2023-02-23T13:59:27;99737.00;;;18.00
65569;BMP180;52211;50.154;8.682;2023-02-23T14:02:16;99741.00;;;18.00
65569;BMP180;52211;50.154;8.682;2023-02-23T14:04:48;99746.00;;;18.10
65569;BMP180;52211;50.154;8.682;2023-02-23T14:07:30;99743.00;;;18.10
65569;BMP180;52211;50.154;8.682;2023-02-23T14:10:07;99740.00;;;18.10
65569;BMP180;52211;50.154;8.682;2023-02-23T14:13:06;99738.00;;;18.20
65569;BMP180;52211;50.154;8.682;2023-02-23T14:18:27;99737.00;;;18.20
65569;BMP180;52211;50.154;8.682;2023-02-23T14:24:21;99740.00;;;18.30
65569;BMP180;52211;50.154;8.682;2023-02-23T14:29:43;99724.00;;;18.20
65569;BMP180;52211;50.154;8.682;2023-02-23T14:32:41;99735.00;;;18.20
65569;BMP180;52211;50.154;8.682;2023-02-23T14:38:09;99733.00;;;18.20
65569;BMP180;52211;50.154;8.682;2023-02-23T14:40:47;99735.00;;;18.30
65569;BMP180;52211;50.154;8.682;2023-02-23T14:46:22;99737.00;;;18.40
65569;BMP180;52211;50.154;8.682;2023-02-23T14:49:04;99733.00;;;18.40
65569;BMP180;52211;50.154;8.682;2023-02-23T14:51:47;99731.00;;;18.50
65569;BMP180;52211;50.154;8.682;2023-02-23T14:54:37;99745.00;;;18.50
65569;BMP180;52211;50.154;8.682;2023-02-23T15:00:01;99741.00;;;18.50
65569;BMP180;52211;50.154;8.682;2023-02-23T15:02:31;99743.00;;;18.50
65569;BMP180;52211;50.154;8.682;2023-02-23T15:05:17;99741.00;;;18.50
65569;BMP180;52211;50.154;8.682;2023-02-23T15:07:44;99750.00;;;18.50
65569;BMP180;52211;50.154;8.682;2023-02-23T15:10:35;99741.00;;;18.50
65569;BMP180;52211;50.154;8.682;2023-02-23T15:13:24;99750.00;;;18.50
65569;BMP180;52211;50.154;8.682;2023-02-23T15:15:57;99747.00;;;18.50
65569;BMP180;52211;50.154;8.682;2023-02-23T15:18:38;99747.00;;;18.50
65569;BMP180;52211;50.154;8.682;2023-02-23T15:21:14;99756.00;;;18.50
65569;BMP180;52211;50.154;8.682;2023-02-23T15:23:50;99755.00;;;18.50
65569;BMP180;52211;50.154;8.682;2023-02-23T15:26:28;99758.00;;;18.50
65569;BMP180;52211;50.154;8.682;2023-02-23T15:31:43;99760.00;;;18.50
65569;BMP180;52211;50.154;8.682;2023-02-23T15:34:28;99765.00;;;18.40
65569;BMP180;52211;50.154;8.682;2023-02-23T15:37:05;99768.00;;;18.40
65569;BMP180;52211;50.154;8.682;2023-02-23T15:39:52;99759.00;;;18.40
65569;BMP180;52211;50.154;8.682;2023-02-23T15:42:43;99764.00;;;18.30
65569;BMP180;52211;50.154;8.682;2023-02-23T15:47:57;99766.00;;;18.20
65569;BMP180;52211;50.154;8.682;2023-02-23T15:50:32;99764.00;;;18.20
65569;BMP180;52211;50.154;8.682;2023-02-23T15:53:12;99764.00;;;18.20
65569;BMP180;52211;50.154;8.682;2023-02-23T15:55:49;99759.00;;;18.20
65569;BMP180;52211;50.154;8.682;2023-02-23T15:58:30;99755.00;;;18.20
65569;BMP180;52211;50.154;8.682;2023-02-23T16:04:06;99754.00;;;18.20
65569;BMP180;52211;50.154;8.682;2023-02-23T16:06:48;99760.00;;;18.10
65569;BMP180;52211;50.154;8.682;2023-02-23T16:12:02;99759.00;;;18.10
65569;BMP180;52211;50.154;8.682;2023-02-23T16:14:48;99762.00;;;18.00
65569;BMP180;52211;50.154;8.682;2023-02-23T16:17:47;99768.00;;;18.00
65569;BMP180;52211;50.154;8.682;2023-02-23T16:20:42;99761.00;;;17.90
65569;BMP180;52211;50.154;8.682;2023-02-23T16:23:39;99764.00;;;17.90
65569;BMP180;52211;50.154;8.682;2023-02-23T16:26:25;99756.00;;;17.90
65569;BMP180;52211;50.154;8.682;2023-02-23T16:29:00;99761.00;;;17.90
65569;BMP180;52211;50.154;8.682;2023-02-23T16:31:47;99754.00;;;17.80
65569;BMP180;52211;50.154;8.682;2023-02-23T16:34:27;99758.00;;;17.80
65569;BMP180;52211;50.154;8.682;2023-02-23T16:37:00;99757.00;;;17.80
65569;BMP180;52211;50.154;8.682;2023-02-23T16:39:35;99761.00;;;17.80
65569;BMP180;52211;50.154;8.682;2023-02-23T16:42:04;99765.00;;;17.80
65569;BMP180;52211;50.154;8.682;2023-02-23T16:44:31;99766.00;;;17.80
65569;BMP180;52211;50.154;8.682;2023-02-23T16:47:28;99771.00;;;17.80
65569;BMP180;52211;50.154;8.682;2023-02-23T16:49:58;99773.00;;;17.80
65569;BMP180;52211;50.154;8.682;2023-02-23T16:52:50;99772.00;;;17.70
65569;BMP180;52211;50.154;8.682;2023-02-23T16:55:25;99771.00;;;17.70
65569;BMP180;52211;50.154;8.682;2023-02-23T16:58:00;99771.00;;;17.70
65569;BMP180;52211;50.154;8.682;2023-02-23T17:00:32;99779.00;;;17.70
65569;BMP180;52211;50.154;8.682;2023-02-23T17:02:59;99773.00;;;17.60
65569;BMP180;52211;50.154;8.682;2023-02-23T17:05:31;99778.00;;;17.60